sensor_id;sensor_type;location;lat;lon;timestamp;P1;durP1;ratioP1;P2;durP2;ratioP2
44456;SDS011;30159;49.316;8.558;2023-02-17T00:01:10;7.23;;;6.60;;
44456;SDS011;30159;49.316;8.558;2023-02-17T00:03:37;10.63;;;6.17;;
44456;SDS011;30159;49.316;8.558;2023-02-17T00:06:06;8.27;;;6.33;;
44456;SDS011;30159;49.316;8.558;2023-02-17T00:08:33;6.13;;;5.53;;
44456;SDS011;30159;49.316;8.558;2023-02-17T00:11:00;7.20;;;5.60;;
44456;SDS011;30159;49.316;8.558;2023-02-17T00:13:27;5.80;;;5.17;;
44456;SDS011;30159;49.316;8.558;2023-02-17T00:15:55;8.33;;;5.77;;
44456;SDS011;30159;49.316;8.558;2023-02-17T00:18:21;6.93;;;6.23;;
44456;SDS011;30159;49.316;8.558;2023-02-17T00:20:48;7.67;;;6.63;;
44456;SDS011;30159;49.316;8.558;2023-02-17T00:23:15;5.57;;;5.00;;
44456;SDS011;30159;49.316;8.558;2023-02-17T00:25:42;7.27;;;6.67;;
44456;SDS011;30159;49.316;8.558;2023-02-17T00:28:08;6.67;;;6.03;;
44456;SDS011;30159;49.316;8.558;2023-02-17T00:30:36;6.83;;;5.73;;
44456;SDS011;30159;49.316;8.558;2023-02-17T00:33:04;5.50;;;5.10;;
44456;SDS011;30159;49.316;8.558;2023-02-17T00:35:30;6.03;;;5.53;;
44456;SDS011;30159;49.316;8.558;2023-02-17T00:37:57;10.60;;;5.60;;
44456;SDS011;30159;49.316;8.558;2023-02-17T00:40:23;7.20;;;5.87;;
44456;SDS011;30159;49.316;8.558;2023-02-17T00:42:50;6.50;;;5.90;;
44456;SDS011;30159;49.316;8.558;2023-02-17T00:45:18;5.43;;;4.93;;
44456;SDS011;30159;49.316;8.558;2023-02-17T00:47:45;7.70;;;5.83;;
44456;SDS011;30159;49.316;8.558;2023-02-17T00:50:13;7.80;;;6.17;;
44456;SDS011;30159;49.316;8.558;2023-02-17T00:52:40;6.53;;;6.00;;
44456;SDS011;30159;49.316;8.558;2023-02-17T00:55:07;6.80;;;5.70;;
44456;SDS011;30159;49.316;8.558;2023-02-17T00:57:33;6.77;;;6.17;;
44456;SDS011;30159;49.316;8.558;2023-02-17T01:00:00;6.50;;;5.53;;
44456;SDS011;30159;49.316;8.558;2023-02-17T01:02:26;5.93;;;5.33;;
44456;SDS011;30159;49.316;8.558;2023-02-17T01:04:53;6.23;;;5.53;;
44456;SDS011;30159;49.316;8.558;2023-02-17T01:07:21;6.90;;;5.40;;
44456;SDS011;30159;49.316;8.558;2023-02-17T01:09:47;6.20;;;5.30;;
44456;SDS011;30159;49.316;8.558;2023-02-17T01:12:14;7.13;;;5.83;;
44456;SDS011;30159;49.316;8.558;2023-02-17T01:14:40;7.53;;;5.10;;
44456;SDS011;30159;49.316;8.558;2023-02-17T01:17:07;6.40;;;5.90;;
44456;SDS011;30159;49.316;8.558;2023-02-17T01:19:33;6.07;;;4.60;;
44456;SDS011;30159;49.316;8.558;2023-02-17T01:22:00;6.53;;;5.90;;
44456;SDS011;30159;49.316;8.558;2023-02-17T01:24:28;10.90;;;6.00;;
44456;SDS011;30159;49.316;8.558;2023-02-17T01:26:54;6.60;;;5.07;;
44456;SDS011;30159;49.316;8.558;2023-02-17T01:29:21;5.87;;;5.03;;
44456;SDS011;30159;49.316;8.558;2023-02-17T01:31:47;6.53;;;5.07;;
44456;SDS011;30159;49.316;8.558;2023-02-17T01:34:14;4.93;;;4.47;;
44456;SDS011;30159;49.316;8.558;2023-02-17T01:36:40;4.90;;;4.50;;
44456;SDS011;30159;49.316;8.558;2023-02-17T01:39:07;6.33;;;4.87;;
44456;SDS011;30159;49.316;8.558;2023-02-17T01:41:34;7.80;;;5.63;;
44456;SDS011;30159;49.316;8.558;2023-02-17T01:44:05;6.60;;;4.93;;
44456;SDS011;30159;49.316;8.558;2023-02-17T01:46:37;7.10;;;4.33;;
44456;SDS011;30159;49.316;8.558;2023-02-17T01:49:08;5.47;;;4.47;;
44456;SDS011;30159;49.316;8.558;2023-02-17T01:51:40;6.67;;;4.87;;
44456;SDS011;30159;49.316;8.558;2023-02-17T01:54:09;7.93;;;4.87;;
44456;SDS011;30159;49.316;8.558;2023-02-17T01:56:40;7.37;;;5.00;;
44456;SDS011;30159;49.316;8.558;2023-02-17T01:59:10;8.20;;;4.93;;
44456;SDS011;30159;49.316;8.558;2023-02-17T02:01:41;5.67;;;4.77;;
44456;SDS011;30159;49.316;8.558;2023-02-17T02:04:08;4.90;;;4.40;;
44456;SDS011;30159;49.316;8.558;2023-02-17T02:06:35;5.50;;;4.27;;
44456;SDS011;30159;49.316;8.558;2023-02-17T02:09:09;5.03;;;4.63;;
44456;SDS011;30159;49.316;8.558;2023-02-17T02:11:41;7.40;;;4.60;;
44456;SDS011;30159;49.316;8.558;2023-02-17T02:14:07;7.77;;;5.33;;
44456;SDS011;30159;49.316;8.558;2023-02-17T02:16:39;5.30;;;4.43;;
44456;SDS011;30159;49.316;8.558;2023-02-17T02:19:17;5.77;;;4.40;;
44456;SDS011;30159;49.316;8.558;2023-02-17T02:22:21;6.70;;;4.73;;
44456;SDS011;30159;49.316;8.558;2023-02-17T02:25:07;4.87;;;4.27;;
44456;SDS011;30159;49.316;8.558;2023-02-17T02:27:51;6.97;;;4.33;;
44456;SDS011;30159;49.316;8.558;2023-02-17T02:30:39;6.20;;;4.30;;
44456;SDS011;30159;49.316;8.558;2023-02-17T02:33:17;4.90;;;4.40;;
44456;SDS011;30159;49.316;8.558;2023-02-17T02:35:54;4.93;;;4.60;;
44456;SDS011;30159;49.316;8.558;2023-02-17T02:38:25;8.30;;;4.87;;
44456;SDS011;30159;49.316;8.558;2023-02-17T02:40:57;5.50;;;4.30;;
44456;SDS011;30159;49.316;8.558;2023-02-17T02:43:28;4.47;;;4.07;;
44456;SDS011;30159;49.316;8.558;2023-02-17T02:45:55;4.00;;;3.57;;
44456;SDS011;30159;49.316;8.558;2023-02-17T02:48:23;6.00;;;5.20;;
44456;SDS011;30159;49.316;8.558;2023-02-17T02:50:58;4.10;;;3.70;;
44456;SDS011;30159;49.316;8.558;2023-02-17T02:53:38;4.27;;;3.87;;
44456;SDS011;30159;49.316;8.558;2023-02-17T02:56:17;5.20;;;4.33;;
44456;SDS011;30159;49.316;8.558;2023-02-17T02:58:54;5.07;;;4.43;;
44456;SDS011;30159;49.316;8.558;2023-02-17T03:01:26;7.50;;;4.07;;
44456;SDS011;30159;49.316;8.558;2023-02-17T03:04:03;5.10;;;4.30;;
44456;SDS011;30159;49.316;8.558;2023-02-17T03:06:39;5.07;;;4.67;;
44456;SDS011;30159;49.316;8.558;2023-02-17T03:09:12;5.00;;;4.60;;
44456;SDS011;30159;49.316;8.558;2023-02-17T03:11:42;7.43;;;4.90;;
44456;SDS011;30159;49.316;8.558;2023-02-17T03:14:10;4.90;;;4.40;;
44456;SDS011;30159;49.316;8.558;2023-02-17T03:16:38;4.17;;;3.90;;
44456;SDS011;30159;49.316;8.558;2023-02-17T03:19:08;6.13;;;4.53;;
44456;SDS011;30159;49.316;8.558;2023-02-17T03:21:36;12.20;;;4.60;;
44456;SDS011;30159;49.316;8.558;2023-02-17T03:24:07;5.30;;;3.87;;
44456;SDS011;30159;49.316;8.558;2023-02-17T03:26:34;5.10;;;4.20;;
44456;SDS011;30159;49.316;8.558;2023-02-17T03:29:01;10.87;;;4.63;;
44456;SDS011;30159;49.316;8.558;2023-02-17T03:31:27;6.70;;;4.57;;
44456;SDS011;30159;49.316;8.558;2023-02-17T03:33:54;4.70;;;4.23;;
44456;SDS011;30159;49.316;8.558;2023-02-17T03:36:22;4.80;;;4.50;;
44456;SDS011;30159;49.316;8.558;2023-02-17T03:38:48;4.80;;;4.50;;
44456;SDS011;30159;49.316;8.558;2023-02-17T03:41:15;6.30;;;3.60;;
44456;SDS011;30159;49.316;8.558;2023-02-17T03:43:41;6.23;;;4.40;;
44456;SDS011;30159;49.316;8.558;2023-02-17T03:46:09;6.27;;;4.60;;
44456;SDS011;30159;49.316;8.558;2023-02-17T03:48:36;4.50;;;4.10;;
44456;SDS011;30159;49.316;8.558;2023-02-17T03:51:08;3.97;;;3.57;;
44456;SDS011;30159;49.316;8.558;2023-02-17T03:53:39;4.57;;;4.17;;
44456;SDS011;30159;49.316;8.558;2023-02-17T03:56:05;4.40;;;4.10;;
44456;SDS011;30159;49.316;8.558;2023-02-17T03:58:32;5.23;;;4.73;;
44456;SDS011;30159;49.316;8.558;2023-02-17T04:00:59;4.93;;;4.20;;
44456;SDS011;30159;49.316;8.558;2023-02-17T04:03:26;5.43;;;4.90;;
44456;SDS011;30159;49.316;8.558;2023-02-17T04:05:52;4.70;;;4.20;;
44456;SDS011;30159;49.316;8.558;2023-02-17T04:08:19;3.97;;;3.67;;
44456;SDS011;30159;49.316;8.558;2023-02-17T04:10:48;5.37;;;3.80;;
44456;SDS011;30159;49.316;8.558;2023-02-17T04:13:16;4.33;;;3.60;;
44456;SDS011;30159;49.316;8.558;2023-02-17T04:15:43;7.53;;;3.93;;
44456;SDS011;30159;49.316;8.558;2023-02-17T04:18:10;4.20;;;3.90;;
44456;SDS011;30159;49.316;8.558;2023-02-17T04:20:36;4.87;;;4.07;;
44456;SDS011;30159;49.316;8.558;2023-02-17T04:23:03;4.47;;;3.53;;
44456;SDS011;30159;49.316;8.558;2023-02-17T04:25:29;3.90;;;3.60;;
44456;SDS011;30159;49.316;8.558;2023-02-17T04:28:00;3.70;;;3.27;;
44456;SDS011;30159;49.316;8.558;2023-02-17T04:30:26;3.43;;;3.13;;
44456;SDS011;30159;49.316;8.558;2023-02-17T04:32:53;5.03;;;3.80;;
44456;SDS011;30159;49.316;8.558;2023-02-17T04:35:20;2.80;;;2.60;;
44456;SDS011;30159;49.316;8.558;2023-02-17T04:37:46;3.77;;;2.73;;
44456;SDS011;30159;49.316;8.558;2023-02-17T04:40:13;3.53;;;3.20;;
44456;SDS011;30159;49.316;8.558;2023-02-17T04:42:40;6.33;;;3.40;;
44456;SDS011;30159;49.316;8.558;2023-02-17T04:45:09;4.10;;;2.93;;
44456;SDS011;30159;49.316;8.558;2023-02-17T04:47:35;5.40;;;3.70;;
44456;SDS011;30159;49.316;8.558;2023-02-17T04:50:02;4.23;;;2.80;;
44456;SDS011;30159;49.316;8.558;2023-02-17T04:52:29;4.20;;;3.40;;
44456;SDS011;30159;49.316;8.558;2023-02-17T04:54:56;3.40;;;3.10;;
44456;SDS011;30159;49.316;8.558;2023-02-17T04:57:22;7.93;;;3.83;;
44456;SDS011;30159;49.316;8.558;2023-02-17T04:59:49;5.27;;;4.00;;
44456;SDS011;30159;49.316;8.558;2023-02-17T05:02:17;6.10;;;3.73;;
44456;SDS011;30159;49.316;8.558;2023-02-17T05:04:43;4.90;;;3.60;;
44456;SDS011;30159;49.316;8.558;2023-02-17T05:07:10;4.07;;;3.60;;
44456;SDS011;30159;49.316;8.558;2023-02-17T05:09:37;9.50;;;3.87;;
44456;SDS011;30159;49.316;8.558;2023-02-17T05:12:03;6.50;;;4.10;;
44456;SDS011;30159;49.316;8.558;2023-02-17T05:14:31;4.97;;;4.23;;
44456;SDS011;30159;49.316;8.558;2023-02-17T05:16:58;6.07;;;4.30;;
44456;SDS011;30159;49.316;8.558;2023-02-17T05:19:26;5.70;;;4.00;;
44456;SDS011;30159;49.316;8.558;2023-02-17T05:21:52;8.30;;;4.87;;
44456;SDS011;30159;49.316;8.558;2023-02-17T05:24:19;5.70;;;3.90;;
44456;SDS011;30159;49.316;8.558;2023-02-17T05:26:46;4.53;;;3.83;;
44456;SDS011;30159;49.316;8.558;2023-02-17T05:29:12;4.40;;;3.93;;
44456;SDS011;30159;49.316;8.558;2023-02-17T05:31:39;7.97;;;4.50;;
44456;SDS011;30159;49.316;8.558;2023-02-17T05:34:05;6.10;;;5.40;;
44456;SDS011;30159;49.316;8.558;2023-02-17T05:36:33;6.03;;;4.63;;
44456;SDS011;30159;49.316;8.558;2023-02-17T05:38:59;5.83;;;4.20;;
44456;SDS011;30159;49.316;8.558;2023-02-17T05:41:26;5.10;;;4.50;;
44456;SDS011;30159;49.316;8.558;2023-02-17T05:43:53;5.57;;;3.73;;
44456;SDS011;30159;49.316;8.558;2023-02-17T05:46:20;6.73;;;4.50;;
44456;SDS011;30159;49.316;8.558;2023-02-17T05:48:47;7.50;;;4.97;;
44456;SDS011;30159;49.316;8.558;2023-02-17T05:51:13;9.83;;;5.03;;
44456;SDS011;30159;49.316;8.558;2023-02-17T05:53:42;4.53;;;4.00;;
44456;SDS011;30159;49.316;8.558;2023-02-17T05:56:09;9.50;;;5.17;;
44456;SDS011;30159;49.316;8.558;2023-02-17T05:58:35;5.57;;;4.90;;
44456;SDS011;30159;49.316;8.558;2023-02-17T06:01:05;7.43;;;4.67;;
44456;SDS011;30159;49.316;8.558;2023-02-17T06:03:32;8.90;;;4.90;;
44456;SDS011;30159;49.316;8.558;2023-02-17T06:05:59;5.10;;;4.60;;
44456;SDS011;30159;49.316;8.558;2023-02-17T06:08:26;8.77;;;4.13;;
44456;SDS011;30159;49.316;8.558;2023-02-17T06:10:54;3.60;;;3.40;;
44456;SDS011;30159;49.316;8.558;2023-02-17T06:13:21;3.60;;;3.30;;
44456;SDS011;30159;49.316;8.558;2023-02-17T06:15:48;5.07;;;3.97;;
44456;SDS011;30159;49.316;8.558;2023-02-17T06:18:14;7.40;;;4.20;;
44456;SDS011;30159;49.316;8.558;2023-02-17T06:20:41;11.53;;;3.80;;
44456;SDS011;30159;49.316;8.558;2023-02-17T06:23:07;5.03;;;4.60;;
44456;SDS011;30159;49.316;8.558;2023-02-17T06:25:34;7.60;;;4.00;;
44456;SDS011;30159;49.316;8.558;2023-02-17T06:28:02;4.50;;;4.20;;
44456;SDS011;30159;49.316;8.558;2023-02-17T06:30:29;6.90;;;3.70;;
44456;SDS011;30159;49.316;8.558;2023-02-17T06:32:56;3.97;;;3.67;;
44456;SDS011;30159;49.316;8.558;2023-02-17T06:35:23;6.43;;;4.27;;
44456;SDS011;30159;49.316;8.558;2023-02-17T06:37:49;6.60;;;3.53;;
44456;SDS011;30159;49.316;8.558;2023-02-17T06:40:16;8.90;;;3.93;;
44456;SDS011;30159;49.316;8.558;2023-02-17T06:42:43;5.47;;;3.60;;
44456;SDS011;30159;49.316;8.558;2023-02-17T06:45:11;3.73;;;3.50;;
44456;SDS011;30159;49.316;8.558;2023-02-17T06:47:38;4.37;;;4.07;;
44456;SDS011;30159;49.316;8.558;2023-02-17T06:50:05;4.70;;;4.20;;
44456;SDS011;30159;49.316;8.558;2023-02-17T06:52:32;4.90;;;4.40;;
44456;SDS011;30159;49.316;8.558;2023-02-17T06:54:59;4.97;;;4.03;;
44456;SDS011;30159;49.316;8.558;2023-02-17T06:57:25;4.43;;;4.03;;
44456;SDS011;30159;49.316;8.558;2023-02-17T06:59:52;6.13;;;3.70;;
44456;SDS011;30159;49.316;8.558;2023-02-17T07:02:20;5.43;;;3.87;;
44456;SDS011;30159;49.316;8.558;2023-02-17T07:04:46;6.17;;;4.47;;
44456;SDS011;30159;49.316;8.558;2023-02-17T07:07:13;3.93;;;3.53;;
44456;SDS011;30159;49.316;8.558;2023-02-17T07:09:40;3.90;;;3.60;;
44456;SDS011;30159;49.316;8.558;2023-02-17T07:12:06;4.33;;;4.00;;
44456;SDS011;30159;49.316;8.558;2023-02-17T07:14:33;4.20;;;3.63;;
44456;SDS011;30159;49.316;8.558;2023-02-17T07:17:00;5.60;;;3.87;;
44456;SDS011;30159;49.316;8.558;2023-02-17T07:19:28;4.70;;;4.40;;
44456;SDS011;30159;49.316;8.558;2023-02-17T07:21:55;4.10;;;3.50;;
44456;SDS011;30159;49.316;8.558;2023-02-17T07:24:21;5.83;;;3.50;;
44456;SDS011;30159;49.316;8.558;2023-02-17T07:26:48;4.37;;;4.00;;
44456;SDS011;30159;49.316;8.558;2023-02-17T07:29:15;9.50;;;4.80;;
44456;SDS011;30159;49.316;8.558;2023-02-17T07:31:41;5.30;;;3.90;;
44456;SDS011;30159;49.316;8.558;2023-02-17T07:34:08;3.63;;;3.33;;
44456;SDS011;30159;49.316;8.558;2023-02-17T07:36:36;7.40;;;4.53;;
44456;SDS011;30159;49.316;8.558;2023-02-17T07:39:03;5.00;;;3.90;;
44456;SDS011;30159;49.316;8.558;2023-02-17T07:41:31;6.17;;;5.60;;
44456;SDS011;30159;49.316;8.558;2023-02-17T07:43:58;7.00;;;4.77;;
44456;SDS011;30159;49.316;8.558;2023-02-17T07:46:24;5.17;;;4.10;;
44456;SDS011;30159;49.316;8.558;2023-02-17T07:48:51;5.37;;;4.80;;
44456;SDS011;30159;49.316;8.558;2023-02-17T07:51:20;4.87;;;4.47;;
44456;SDS011;30159;49.316;8.558;2023-02-17T07:53:49;5.23;;;4.23;;
44456;SDS011;30159;49.316;8.558;2023-02-17T07:56:18;4.63;;;3.50;;
44456;SDS011;30159;49.316;8.558;2023-02-17T07:58:45;5.17;;;3.70;;
44456;SDS011;30159;49.316;8.558;2023-02-17T08:01:14;3.90;;;3.50;;
44456;SDS011;30159;49.316;8.558;2023-02-17T08:03:42;5.73;;;3.50;;
44456;SDS011;30159;49.316;8.558;2023-02-17T08:06:08;3.20;;;3.00;;
44456;SDS011;30159;49.316;8.558;2023-02-17T08:08:36;3.33;;;3.00;;
44456;SDS011;30159;49.316;8.558;2023-02-17T08:11:21;3.70;;;3.40;;
44456;SDS011;30159;49.316;8.558;2023-02-17T08:14:05;3.67;;;3.37;;
44456;SDS011;30159;49.316;8.558;2023-02-17T08:16:32;4.67;;;3.50;;
44456;SDS011;30159;49.316;8.558;2023-02-17T08:18:59;3.50;;;3.20;;
44456;SDS011;30159;49.316;8.558;2023-02-17T08:21:25;4.40;;;3.07;;
44456;SDS011;30159;49.316;8.558;2023-02-17T08:23:53;3.17;;;2.97;;
44456;SDS011;30159;49.316;8.558;2023-02-17T08:26:20;3.73;;;3.43;;
44456;SDS011;30159;49.316;8.558;2023-02-17T08:28:48;3.30;;;2.40;;
44456;SDS011;30159;49.316;8.558;2023-02-17T08:31:15;3.97;;;2.63;;
44456;SDS011;30159;49.316;8.558;2023-02-17T08:33:42;3.10;;;2.90;;
44456;SDS011;30159;49.316;8.558;2023-02-17T08:36:09;4.17;;;3.20;;
44456;SDS011;30159;49.316;8.558;2023-02-17T08:38:36;4.60;;;3.63;;
44456;SDS011;30159;49.316;8.558;2023-02-17T08:41:10;2.77;;;2.57;;
44456;SDS011;30159;49.316;8.558;2023-02-17T08:43:39;2.83;;;2.63;;
44456;SDS011;30159;49.316;8.558;2023-02-17T08:46:06;4.33;;;2.80;;
44456;SDS011;30159;49.316;8.558;2023-02-17T08:48:33;3.40;;;3.10;;
44456;SDS011;30159;49.316;8.558;2023-02-17T08:50:59;3.03;;;2.83;;
44456;SDS011;30159;49.316;8.558;2023-02-17T08:53:26;4.83;;;2.70;;
44456;SDS011;30159;49.316;8.558;2023-02-17T08:55:52;2.77;;;2.57;;
44456;SDS011;30159;49.316;8.558;2023-02-17T08:58:19;2.87;;;2.67;;
44456;SDS011;30159;49.316;8.558;2023-02-17T09:00:47;2.97;;;2.67;;
44456;SDS011;30159;49.316;8.558;2023-02-17T09:03:13;2.17;;;2.07;;
44456;SDS011;30159;49.316;8.558;2023-02-17T09:05:40;2.60;;;2.40;;
44456;SDS011;30159;49.316;8.558;2023-02-17T09:08:07;4.90;;;2.43;;
44456;SDS011;30159;49.316;8.558;2023-02-17T09:10:35;2.27;;;2.07;;
44456;SDS011;30159;49.316;8.558;2023-02-17T09:13:01;1.77;;;1.67;;
44456;SDS011;30159;49.316;8.558;2023-02-17T09:15:28;4.87;;;2.03;;
44456;SDS011;30159;49.316;8.558;2023-02-17T09:17:56;4.13;;;2.23;;
44456;SDS011;30159;49.316;8.558;2023-02-17T09:20:22;4.30;;;2.13;;
44456;SDS011;30159;49.316;8.558;2023-02-17T09:22:49;2.00;;;1.80;;
44456;SDS011;30159;49.316;8.558;2023-02-17T09:25:15;3.20;;;1.77;;
44456;SDS011;30159;49.316;8.558;2023-02-17T09:27:42;1.97;;;1.83;;
44456;SDS011;30159;49.316;8.558;2023-02-17T09:30:09;2.70;;;2.07;;
44456;SDS011;30159;49.316;8.558;2023-02-17T09:32:39;2.33;;;2.17;;
44456;SDS011;30159;49.316;8.558;2023-02-17T09:35:09;2.17;;;1.90;;
44456;SDS011;30159;49.316;8.558;2023-02-17T09:37:36;2.10;;;1.90;;
44456;SDS011;30159;49.316;8.558;2023-02-17T09:40:03;2.10;;;1.90;;
44456;SDS011;30159;49.316;8.558;2023-02-17T09:42:30;2.40;;;2.20;;
44456;SDS011;30159;49.316;8.558;2023-02-17T09:45:03;2.77;;;2.33;;
44456;SDS011;30159;49.316;8.558;2023-02-17T09:47:33;2.10;;;2.00;;
44456;SDS011;30159;49.316;8.558;2023-02-17T09:50:05;2.90;;;2.70;;
44456;SDS011;30159;49.316;8.558;2023-02-17T09:52:35;2.93;;;2.40;;
44456;SDS011;30159;49.316;8.558;2023-02-17T09:55:07;4.40;;;1.93;;
44456;SDS011;30159;49.316;8.558;2023-02-17T09:57:40;6.20;;;2.70;;
44456;SDS011;30159;49.316;8.558;2023-02-17T10:00:17;3.30;;;2.27;;
44456;SDS011;30159;49.316;8.558;2023-02-17T10:02:50;2.00;;;1.83;;
44456;SDS011;30159;49.316;8.558;2023-02-17T10:05:23;2.83;;;2.23;;
44456;SDS011;30159;49.316;8.558;2023-02-17T10:07:56;2.47;;;2.27;;
44456;SDS011;30159;49.316;8.558;2023-02-17T10:10:31;2.70;;;2.50;;
44456;SDS011;30159;49.316;8.558;2023-02-17T10:13:04;3.23;;;2.80;;
44456;SDS011;30159;49.316;8.558;2023-02-17T10:15:34;2.70;;;2.57;;
44456;SDS011;30159;49.316;8.558;2023-02-17T10:18:07;2.47;;;2.27;;
44456;SDS011;30159;49.316;8.558;2023-02-17T10:20:39;2.37;;;2.17;;
44456;SDS011;30159;49.316;8.558;2023-02-17T10:23:09;2.50;;;2.30;;
44456;SDS011;30159;49.316;8.558;2023-02-17T10:25:44;2.60;;;2.40;;
44456;SDS011;30159;49.316;8.558;2023-02-17T10:28:33;2.27;;;2.07;;
44456;SDS011;30159;49.316;8.558;2023-02-17T10:31:09;4.87;;;2.37;;
44456;SDS011;30159;49.316;8.558;2023-02-17T10:33:41;2.37;;;2.27;;
44456;SDS011;30159;49.316;8.558;2023-02-17T10:36:16;2.90;;;2.70;;
44456;SDS011;30159;49.316;8.558;2023-02-17T10:38:51;2.70;;;2.50;;
44456;SDS011;30159;49.316;8.558;2023-02-17T10:41:19;2.50;;;2.30;;
44456;SDS011;30159;49.316;8.558;2023-02-17T10:43:49;3.30;;;2.53;;
44456;SDS011;30159;49.316;8.558;2023-02-17T10:46:18;3.40;;;2.60;;
44456;SDS011;30159;49.316;8.558;2023-02-17T10:48:53;2.13;;;1.93;;
44456;SDS011;30159;49.316;8.558;2023-02-17T10:51:22;5.20;;;2.20;;
44456;SDS011;30159;49.316;8.558;2023-02-17T10:53:54;2.50;;;2.30;;
44456;SDS011;30159;49.316;8.558;2023-02-17T10:56:26;3.40;;;2.30;;
44456;SDS011;30159;49.316;8.558;2023-02-17T10:59:00;2.40;;;2.20;;
44456;SDS011;30159;49.316;8.558;2023-02-17T11:01:32;2.57;;;2.10;;
44456;SDS011;30159;49.316;8.558;2023-02-17T11:04:00;2.17;;;1.90;;
44456;SDS011;30159;49.316;8.558;2023-02-17T11:06:28;3.73;;;2.00;;
44456;SDS011;30159;49.316;8.558;2023-02-17T11:08:59;2.13;;;1.93;;
44456;SDS011;30159;49.316;8.558;2023-02-17T11:11:28;2.10;;;1.90;;
44456;SDS011;30159;49.316;8.558;2023-02-17T11:13:58;1.90;;;1.70;;
44456;SDS011;30159;49.316;8.558;2023-02-17T11:16:32;1.57;;;1.47;;
44456;SDS011;30159;49.316;8.558;2023-02-17T11:19:01;1.40;;;1.30;;
44456;SDS011;30159;49.316;8.558;2023-02-17T11:21:29;2.50;;;1.37;;
44456;SDS011;30159;49.316;8.558;2023-02-17T11:23:59;2.07;;;1.40;;
44456;SDS011;30159;49.316;8.558;2023-02-17T11:26:27;1.47;;;1.37;;
44456;SDS011;30159;49.316;8.558;2023-02-17T11:29:05;1.60;;;1.50;;
44456;SDS011;30159;49.316;8.558;2023-02-17T11:31:33;1.67;;;1.57;;
44456;SDS011;30159;49.316;8.558;2023-02-17T11:34:09;1.83;;;1.40;;
44456;SDS011;30159;49.316;8.558;2023-02-17T11:36:37;2.00;;;1.80;;
44456;SDS011;30159;49.316;8.558;2023-02-17T11:39:15;1.53;;;1.43;;
44456;SDS011;30159;49.316;8.558;2023-02-17T11:41:43;3.23;;;1.40;;
44456;SDS011;30159;49.316;8.558;2023-02-17T11:44:09;1.60;;;1.50;;
44456;SDS011;30159;49.316;8.558;2023-02-17T11:46:37;3.03;;;2.83;;
44456;SDS011;30159;49.316;8.558;2023-02-17T11:49:19;2.13;;;1.93;;
44456;SDS011;30159;49.316;8.558;2023-02-17T11:52:15;1.70;;;1.60;;
44456;SDS011;30159;49.316;8.558;2023-02-17T11:54:54;2.00;;;1.60;;
44456;SDS011;30159;49.316;8.558;2023-02-17T11:57:34;2.40;;;2.20;;
44456;SDS011;30159;49.316;8.558;2023-02-17T12:00:12;2.53;;;2.27;;
44456;SDS011;30159;49.316;8.558;2023-02-17T12:02:45;2.23;;;1.50;;
44456;SDS011;30159;49.316;8.558;2023-02-17T12:05:34;2.60;;;1.80;;
44456;SDS011;30159;49.316;8.558;2023-02-17T12:08:17;2.40;;;2.20;;
44456;SDS011;30159;49.316;8.558;2023-02-17T12:10:57;1.80;;;1.70;;
44456;SDS011;30159;49.316;8.558;2023-02-17T12:13:35;1.70;;;1.60;;
44456;SDS011;30159;49.316;8.558;2023-02-17T12:16:18;1.80;;;1.50;;
44456;SDS011;30159;49.316;8.558;2023-02-17T12:18:55;2.30;;;2.10;;
44456;SDS011;30159;49.316;8.558;2023-02-17T12:21:33;2.10;;;1.90;;
44456;SDS011;30159;49.316;8.558;2023-02-17T12:24:22;2.10;;;1.90;;
44456;SDS011;30159;49.316;8.558;2023-02-17T12:27:01;2.77;;;1.80;;
44456;SDS011;30159;49.316;8.558;2023-02-17T12:29:39;2.30;;;1.93;;
44456;SDS011;30159;49.316;8.558;2023-02-17T12:32:22;3.03;;;2.13;;
44456;SDS011;30159;49.316;8.558;2023-02-17T12:35:00;2.20;;;2.00;;
44456;SDS011;30159;49.316;8.558;2023-02-17T12:37:40;2.13;;;1.93;;
44456;SDS011;30159;49.316;8.558;2023-02-17T12:40:15;2.30;;;2.10;;
44456;SDS011;30159;49.316;8.558;2023-02-17T12:42:51;2.83;;;2.60;;
44456;SDS011;30159;49.316;8.558;2023-02-17T12:45:21;2.23;;;2.03;;
44456;SDS011;30159;49.316;8.558;2023-02-17T12:47:56;2.93;;;1.80;;
44456;SDS011;30159;49.316;8.558;2023-02-17T12:50:29;2.03;;;1.83;;
44456;SDS011;30159;49.316;8.558;2023-02-17T12:53:01;1.87;;;1.77;;
44456;SDS011;30159;49.316;8.558;2023-02-17T12:55:33;2.00;;;1.90;;
44456;SDS011;30159;49.316;8.558;2023-02-17T12:58:05;2.60;;;1.80;;
44456;SDS011;30159;49.316;8.558;2023-02-17T13:00:33;2.13;;;1.93;;
44456;SDS011;30159;49.316;8.558;2023-02-17T13:03:03;4.20;;;3.27;;
44456;SDS011;30159;49.316;8.558;2023-02-17T13:05:32;2.30;;;2.10;;
44456;SDS011;30159;49.316;8.558;2023-02-17T13:08:05;2.00;;;1.90;;
44456;SDS011;30159;49.316;8.558;2023-02-17T13:10:36;2.30;;;2.10;;
44456;SDS011;30159;49.316;8.558;2023-02-17T13:13:08;2.23;;;2.03;;
44456;SDS011;30159;49.316;8.558;2023-02-17T13:15:38;2.17;;;1.97;;
44456;SDS011;30159;49.316;8.558;2023-02-17T13:18:10;2.20;;;2.00;;
44456;SDS011;30159;49.316;8.558;2023-02-17T13:20:49;2.40;;;2.20;;
44456;SDS011;30159;49.316;8.558;2023-02-17T13:29:10;2.07;;;1.83;;
44456;SDS011;30159;49.316;8.558;2023-02-17T13:31:58;2.40;;;1.90;;
44456;SDS011;30159;49.316;8.558;2023-02-17T13:34:28;2.00;;;1.90;;
44456;SDS011;30159;49.316;8.558;2023-02-17T13:36:57;4.30;;;1.83;;
44456;SDS011;30159;49.316;8.558;2023-02-17T13:39:32;2.00;;;1.60;;
44456;SDS011;30159;49.316;8.558;2023-02-17T13:42:00;2.83;;;1.70;;
44456;SDS011;30159;49.316;8.558;2023-02-17T13:44:29;3.20;;;1.70;;
44456;SDS011;30159;49.316;8.558;2023-02-17T13:46:58;2.20;;;2.00;;
44456;SDS011;30159;49.316;8.558;2023-02-17T13:49:27;2.20;;;1.80;;
44456;SDS011;30159;49.316;8.558;2023-02-17T13:52:05;2.30;;;2.10;;
44456;SDS011;30159;49.316;8.558;2023-02-17T13:54:33;2.30;;;2.10;;
44456;SDS011;30159;49.316;8.558;2023-02-17T13:56:59;2.27;;;2.07;;
44456;SDS011;30159;49.316;8.558;2023-02-17T13:59:26;1.87;;;1.50;;
44456;SDS011;30159;49.316;8.558;2023-02-17T14:01:54;3.07;;;2.00;;
44456;SDS011;30159;49.316;8.558;2023-02-17T14:04:21;2.33;;;2.20;;
44456;SDS011;30159;49.316;8.558;2023-02-17T14:06:50;2.00;;;1.90;;
44456;SDS011;30159;49.316;8.558;2023-02-17T14:09:21;2.23;;;2.03;;
44456;SDS011;30159;49.316;8.558;2023-02-17T14:11:50;3.20;;;2.00;;
44456;SDS011;30159;49.316;8.558;2023-02-17T14:14:18;3.63;;;2.13;;
44456;SDS011;30159;49.316;8.558;2023-02-17T14:16:56;4.87;;;2.03;;
44456;SDS011;30159;49.316;8.558;2023-02-17T14:19:24;2.60;;;2.40;;
44456;SDS011;30159;49.316;8.558;2023-02-17T14:21:57;2.80;;;2.27;;
44456;SDS011;30159;49.316;8.558;2023-02-17T14:24:27;2.30;;;2.10;;
44456;SDS011;30159;49.316;8.558;2023-02-17T14:26:55;3.17;;;2.70;;
44456;SDS011;30159;49.316;8.558;2023-02-17T14:29:24;2.57;;;2.00;;
44456;SDS011;30159;49.316;8.558;2023-02-17T14:31:51;2.30;;;2.10;;
44456;SDS011;30159;49.316;8.558;2023-02-17T14:34:26;3.43;;;2.47;;
44456;SDS011;30159;49.316;8.558;2023-02-17T14:36:56;2.83;;;2.63;;
44456;SDS011;30159;49.316;8.558;2023-02-17T14:39:32;2.60;;;2.13;;
44456;SDS011;30159;49.316;8.558;2023-02-17T14:41:59;2.87;;;2.67;;
44456;SDS011;30159;49.316;8.558;2023-02-17T14:44:25;3.07;;;2.60;;
44456;SDS011;30159;49.316;8.558;2023-02-17T14:46:52;2.57;;;2.37;;
44456;SDS011;30159;49.316;8.558;2023-02-17T14:49:18;2.73;;;2.53;;
44456;SDS011;30159;49.316;8.558;2023-02-17T14:51:46;4.20;;;2.63;;
44456;SDS011;30159;49.316;8.558;2023-02-17T14:54:14;3.13;;;2.90;;
44456;SDS011;30159;49.316;8.558;2023-02-17T14:56:43;2.80;;;2.03;;
44456;SDS011;30159;49.316;8.558;2023-02-17T14:59:13;2.63;;;2.43;;
44456;SDS011;30159;49.316;8.558;2023-02-17T15:01:40;3.10;;;2.23;;
44456;SDS011;30159;49.316;8.558;2023-02-17T15:04:06;3.47;;;2.63;;
44456;SDS011;30159;49.316;8.558;2023-02-17T15:06:35;3.23;;;2.93;;
44456;SDS011;30159;49.316;8.558;2023-02-17T15:09:09;3.50;;;3.20;;